createdAt,value
2023-10-26T00:28:33.522Z,101714.56
2023-10-26T00:31:04.828Z,101715.63
2023-10-26T00:35:03.416Z,101723.56
2023-10-26T00:37:49.800Z,101721.25
2023-10-26T00:40:23.253Z,101712.56
2023-10-26T00:43:00.567Z,101700.25
2023-10-26T01:01:58.871Z,101706.88
2023-10-26T01:05:21.046Z,101717.50
2023-10-26T01:13:09.402Z,101725.50
2023-10-26T01:50:31.836Z,101730.16
2023-10-26T01:53:00.536Z,101724.75
2023-10-26T01:55:29.737Z,101730.94
2023-10-26T01:58:01.342Z,101738.88
2023-10-26T02:00:30.502Z,101730.63
2023-10-26T02:02:58.946Z,101737.47
2023-10-26T02:05:28.755Z,101743.47
2023-10-26T02:08:00.206Z,101754.09
2023-10-26T02:10:31.636Z,101763.59
2023-10-26T02:13:00.836Z,101770.31
2023-10-26T02:15:32.079Z,101767.75
2023-10-26T02:18:00.125Z,101765.00
2023-10-26T02:20:33.641Z,101774.88
2023-10-26T02:23:02.615Z,101770.41
2023-10-26T02:25:31.046Z,101772.03
2023-10-26T02:27:59.699Z,101774.28
2023-10-26T02:30:28.344Z,101771.91
2023-10-26T02:32:57.072Z,101776.72
2023-10-26T02:35:25.927Z,101786.00
2023-10-26T02:37:55.011Z,101790.94
2023-10-26T02:40:24.337Z,101794.16
2023-10-26T02:42:53.608Z,101786.25
2023-10-26T02:45:22.543Z,101782.69
2023-10-26T02:47:51.809Z,101788.91
2023-10-26T02:50:20.670Z,101785.47
2023-10-26T02:55:27.680Z,101781.50
2023-10-26T02:57:59.819Z,101794.78
2023-10-26T03:00:28.340Z,101788.69
2023-10-26T03:03:00.981Z,101798.44
2023-10-26T03:05:30.051Z,101799.38
2023-10-26T03:07:58.528Z,101795.09
2023-10-26T03:10:26.964Z,101787.63
2023-10-26T03:13:03.214Z,101785.47
2023-10-26T03:15:32.602Z,101795.22
2023-10-26T03:18:01.085Z,101792.75
2023-10-26T03:20:29.781Z,101783.31
2023-10-26T03:22:58.631Z,101783.44
2023-10-26T03:25:58.056Z,101780.75
2023-10-26T03:34:07.870Z,101771.75
2023-10-26T03:39:24.375Z,101759.22
2023-10-26T03:41:53.306Z,101761.91
2023-10-26T03:44:22.180Z,101768.19
2023-10-26T03:46:59.000Z,101770.97
2023-10-26T03:52:11.870Z,101772.03
2023-10-26T03:54:40.850Z,101782.72
2023-10-26T03:59:36.778Z,101789.91
2023-10-26T04:02:05.420Z,101800.00
2023-10-26T04:04:58.286Z,101803.66
2023-10-26T04:07:26.724Z,101804.22
2023-10-26T04:09:58.032Z,101816.94
2023-10-26T04:12:27.917Z,101825.97
2023-10-26T04:14:57.147Z,101826.38
2023-10-26T04:17:26.073Z,101823.16
2023-10-26T04:19:55.100Z,101819.19
2023-10-26T04:22:23.770Z,101823.78
2023-10-26T04:24:52.667Z,101830.97
2023-10-26T04:27:22.077Z,101832.91
2023-10-26T04:29:51.615Z,101840.97
2023-10-26T04:32:20.507Z,101844.84
2023-10-26T04:34:48.991Z,101845.28
2023-10-26T04:37:18.055Z,101851.09
2023-10-26T04:39:46.961Z,101843.94
2023-10-26T04:42:16.261Z,101857.41
2023-10-26T04:44:45.271Z,101856.31
2023-10-26T04:47:13.728Z,101857.59
2023-10-26T04:49:43.526Z,101858.97
2023-10-26T04:52:16.632Z,101854.91
2023-10-26T04:54:45.616Z,101851.66
2023-10-26T04:57:14.047Z,101847.47
2023-10-26T04:59:42.643Z,101854.84
2023-10-26T05:02:11.357Z,101856.75
2023-10-26T05:04:43.478Z,101862.50
2023-10-26T05:10:29.619Z,101871.69
2023-10-26T05:12:58.261Z,101871.25
2023-10-26T05:15:27.664Z,101874.97
2023-10-26T05:17:56.264Z,101877.44
2023-10-26T05:22:53.115Z,101875.78
2023-10-26T05:25:27.776Z,101872.22
2023-10-26T05:30:27.431Z,101877.31
2023-10-26T05:32:56.023Z,101875.50
2023-10-26T05:35:24.952Z,101874.16
2023-10-26T05:37:54.394Z,101875.19
2023-10-26T05:40:32.349Z,101875.38
2023-10-26T05:43:01.058Z,101878.31
2023-10-26T05:45:31.497Z,101885.19
2023-10-26T05:48:02.696Z,101889.91
2023-10-26T05:50:31.053Z,101888.22
2023-10-26T05:52:59.426Z,101893.41
2023-10-26T05:55:27.831Z,101889.69
2023-10-26T05:57:56.197Z,101893.56
2023-10-26T06:00:24.786Z,101886.63
2023-10-26T06:02:53.306Z,101894.47
2023-10-26T06:05:22.356Z,101894.00
2023-10-26T06:07:51.136Z,101894.84
2023-10-26T06:10:19.785Z,101885.28
2023-10-26T06:12:48.393Z,101886.66
2023-10-26T06:15:18.384Z,101884.44
2023-10-26T06:17:47.036Z,101886.69
2023-10-26T06:20:16.377Z,101883.81
2023-10-26T06:22:45.390Z,101888.56
2023-10-26T06:25:14.135Z,101887.31
2023-10-26T06:27:42.777Z,101881.63
2023-10-26T06:30:27.690Z,101876.69
2023-10-26T06:32:56.094Z,101874.09
2023-10-26T06:35:25.117Z,101879.50
2023-10-26T06:37:53.792Z,101882.09
2023-10-26T06:40:23.021Z,101876.78
2023-10-26T06:42:51.561Z,101889.84
2023-10-26T06:45:30.919Z,101890.81
2023-10-26T06:47:59.474Z,101886.50
2023-10-26T06:50:28.058Z,101892.50
2023-10-26T06:52:57.247Z,101891.06
2023-10-26T06:55:30.919Z,101882.78
2023-10-26T06:57:59.938Z,101892.66
2023-10-26T07:00:28.982Z,101894.09
2023-10-26T07:02:57.403Z,101891.28
2023-10-26T07:05:25.844Z,101891.28
2023-10-26T07:07:54.490Z,101904.19
2023-10-26T07:10:23.167Z,101899.09
2023-10-26T07:12:51.791Z,101901.22
2023-10-26T07:15:20.544Z,101903.63
2023-10-26T07:17:49.308Z,101906.66
2023-10-26T07:20:18.006Z,101910.69
2023-10-26T07:22:55.837Z,101910.94
2023-10-26T07:25:24.284Z,101914.66
2023-10-26T07:27:52.816Z,101912.41
2023-10-26T07:30:21.648Z,101908.25
2023-10-26T07:32:50.435Z,101917.75
2023-10-26T07:35:19.291Z,101911.25
2023-10-26T07:38:09.324Z,101906.47
2023-10-26T07:40:54.434Z,101902.88
2023-10-26T07:43:23.479Z,101908.13
2023-10-26T07:45:53.381Z,101913.38
2023-10-26T07:48:22.545Z,101917.41
2023-10-26T07:50:57.329Z,101909.66
2023-10-26T07:53:26.187Z,101913.63
2023-10-26T07:55:58.820Z,101909.38
2023-10-26T07:58:32.078Z,101906.03
2023-10-26T08:01:00.569Z,101911.69
2023-10-26T08:03:58.825Z,101918.19
2023-10-26T08:06:27.555Z,101921.53
2023-10-26T08:08:55.902Z,101914.81
2023-10-26T08:11:25.248Z,101925.53
2023-10-26T08:13:53.796Z,101927.28
2023-10-26T08:16:40.708Z,101923.72
2023-10-26T08:19:11.443Z,101929.06
2023-10-26T08:24:15.485Z,101936.78
2023-10-26T08:26:55.821Z,101928.97
2023-10-26T08:29:28.052Z,101932.78
2023-10-26T08:31:58.495Z,101932.78
2023-10-26T08:34:30.280Z,101937.13
2023-10-26T08:39:26.893Z,101947.94
2023-10-26T08:42:00.538Z,101934.53
2023-10-26T08:44:31.967Z,101936.25
2023-10-26T08:47:01.716Z,101928.00
2023-10-26T08:52:06.098Z,101923.06
2023-10-26T08:54:53.871Z,101935.28
2023-10-26T08:57:22.194Z,101937.81
2023-10-26T08:59:54.773Z,101941.75
2023-10-26T09:02:23.219Z,101937.81
2023-10-26T09:05:09.363Z,101943.81
2023-10-26T09:07:38.376Z,101942.81
2023-10-26T09:13:08.230Z,101952.19
2023-10-26T09:16:00.384Z,101951.69
2023-10-26T09:18:29.935Z,101958.97
2023-10-26T09:21:10.151Z,101953.09
2023-10-26T09:23:42.224Z,101963.19
2023-10-26T09:28:52.204Z,101959.63
2023-10-26T09:31:21.274Z,101970.16
2023-10-26T09:33:50.327Z,101972.75
2023-10-26T09:36:20.588Z,101960.56
2023-10-26T09:38:50.401Z,101963.16
2023-10-26T09:41:21.060Z,101964.97
2023-10-26T09:43:50.279Z,101958.88
2023-10-26T09:48:48.030Z,101970.78
2023-10-26T09:51:23.536Z,101974.22
2023-10-26T09:53:53.267Z,101974.91
2023-10-26T09:56:30.085Z,101975.88
2023-10-26T09:59:00.310Z,101977.13
2023-10-26T10:01:39.409Z,101976.50
2023-10-26T10:04:09.938Z,101972.72
2023-10-26T10:07:02.959Z,101970.44
2023-10-26T10:09:32.482Z,101969.97
2023-10-26T10:12:08.013Z,101960.41
2023-10-26T10:15:05.707Z,101966.97
2023-10-26T10:17:45.919Z,101963.03
2023-10-26T10:20:35.968Z,101953.56
2023-10-26T10:25:55.172Z,101955.94
2023-10-26T10:28:23.601Z,101961.38
2023-10-26T10:30:57.803Z,101956.31
2023-10-26T10:33:28.315Z,101960.81
2023-10-26T10:36:03.965Z,101960.94
2023-10-26T10:38:33.836Z,101955.06
2023-10-26T10:41:02.627Z,101955.47
2023-10-26T10:43:36.559Z,101953.41
2023-10-26T10:46:28.350Z,101946.28
2023-10-26T10:48:56.790Z,101948.69
2023-10-26T10:51:31.417Z,101947.25
2023-10-26T10:54:06.017Z,101945.09
2023-10-26T10:56:45.003Z,101955.78
2023-10-26T10:59:27.970Z,101940.88
2023-10-26T11:02:11.287Z,101955.63
2023-10-26T11:07:36.210Z,101956.78
2023-10-26T11:10:05.896Z,101950.50
2023-10-26T11:12:34.323Z,101955.66
2023-10-26T11:15:03.651Z,101956.75
2023-10-26T11:17:33.955Z,101949.88
2023-10-26T11:20:54.589Z,101959.72
2023-10-26T11:23:26.013Z,101966.44
2023-10-26T11:25:53.951Z,101968.66
2023-10-26T11:28:49.586Z,101970.72
2023-10-26T11:31:18.593Z,101974.75
2023-10-26T11:33:47.034Z,101979.63
2023-10-26T11:36:16.032Z,101985.16
2023-10-26T11:38:51.719Z,101984.44
2023-10-26T11:41:27.433Z,101986.31
2023-10-26T11:43:56.581Z,101989.97
2023-10-26T11:46:36.159Z,101990.34
2023-10-26T11:49:08.546Z,101989.19
2023-10-26T11:51:40.481Z,101990.53
2023-10-26T11:54:30.625Z,102001.38
2023-10-26T11:56:59.692Z,102004.25
2023-10-26T11:59:30.780Z,102014.72
2023-10-26T12:02:19.803Z,102005.31
2023-10-26T12:04:52.310Z,101996.91
2023-10-26T12:10:17.245Z,101992.72
2023-10-26T12:12:46.547Z,102003.06
2023-10-26T12:15:15.126Z,102001.44
2023-10-26T12:17:43.709Z,102005.97
2023-10-26T12:20:13.211Z,101999.91
2023-10-26T12:22:52.107Z,101999.25
2023-10-26T12:25:21.052Z,101997.25
2023-10-26T12:28:19.972Z,102004.22
2023-10-26T12:30:47.552Z,101998.91
2023-10-26T12:36:47.647Z,101996.56
2023-10-26T12:39:47.204Z,102007.34
2023-10-26T12:42:45.721Z,102003.25
2023-10-26T12:48:18.745Z,102003.47
2023-10-26T12:50:47.175Z,102006.41
2023-10-26T12:53:16.070Z,102013.03
2023-10-26T12:58:15.947Z,102012.28
2023-10-26T13:00:50.374Z,102016.75
2023-10-26T13:03:46.147Z,102014.69
2023-10-26T13:09:01.373Z,102016.75
2023-10-26T13:11:39.634Z,102022.06
2023-10-26T13:14:16.587Z,102022.66
2023-10-26T13:19:15.107Z,102024.97
2023-10-26T13:21:46.739Z,102023.53
2023-10-26T13:24:15.164Z,102020.00
2023-10-26T13:26:48.758Z,102029.63
2023-10-26T13:29:17.212Z,102033.13
2023-10-26T13:31:45.814Z,102027.25
2023-10-26T13:34:14.204Z,102026.06
2023-10-26T13:39:45.735Z,102026.84
2023-10-26T13:42:17.682Z,102027.34
2023-10-26T13:48:52.209Z,102021.69
2023-10-26T13:51:53.213Z,102020.00
2023-10-26T13:58:45.341Z,102022.53
2023-10-26T14:05:47.133Z,102010.06
2023-10-26T14:30:48.918Z,102032.16
2023-10-26T15:16:42.719Z,102055.59
2023-10-26T15:19:12.457Z,102062.13
2023-10-26T15:21:40.942Z,102058.03
2023-10-26T15:45:17.892Z,102085.13
2023-10-26T17:01:43.713Z,102118.22
2023-10-26T17:04:43.739Z,102117.91
2023-10-26T17:07:44.930Z,102123.53
2023-10-26T17:14:09.714Z,102119.66
2023-10-26T17:17:37.743Z,102128.66
2023-10-26T17:20:36.876Z,102135.28
2023-10-26T17:23:42.111Z,102141.19
2023-10-26T17:26:45.419Z,102142.94
2023-10-26T17:38:40.414Z,102136.41
2023-10-26T17:47:24.815Z,102128.41
2023-10-26T17:54:09.782Z,102126.22
2023-10-26T18:09:06.968Z,102119.22
2023-10-26T18:11:37.545Z,102116.31
2023-10-26T18:14:06.187Z,102118.38
2023-10-26T18:16:36.669Z,102118.47
2023-10-26T18:19:06.662Z,102116.31
2023-10-26T18:22:08.288Z,102119.66
2023-10-26T18:27:39.705Z,102122.84
2023-10-26T18:30:09.336Z,102119.97
2023-10-26T18:33:10.699Z,102122.75
2023-10-26T18:38:38.213Z,102130.63
2023-10-26T18:41:06.989Z,102118.38
2023-10-26T18:47:04.462Z,102118.16
2023-10-26T18:49:38.850Z,102116.63
2023-10-26T18:52:10.458Z,102120.84
2023-10-26T18:55:11.374Z,102113.53
2023-10-26T18:58:04.996Z,102119.22
2023-10-26T19:00:42.069Z,102109.25
2023-10-26T19:03:11.791Z,102106.03
2023-10-26T19:06:07.154Z,102106.53
2023-10-26T19:09:05.403Z,102099.25
2023-10-26T19:11:34.727Z,102093.22
2023-10-26T19:14:08.697Z,102096.78
2023-10-26T19:20:07.888Z,102089.03
2023-10-26T19:22:39.203Z,102100.72
2023-10-26T19:25:08.393Z,102091.16
2023-10-26T19:27:39.333Z,102088.59
2023-10-26T19:30:07.762Z,102090.22
2023-10-26T19:32:36.404Z,102089.72
2023-10-26T19:35:05.674Z,102083.38
2023-10-26T19:37:34.650Z,102089.22
2023-10-26T19:40:09.789Z,102089.25
2023-10-26T19:45:34.423Z,102080.19
2023-10-26T19:48:04.528Z,102081.88
2023-10-26T19:50:33.789Z,102073.91
2023-10-26T19:53:06.236Z,102070.25
2023-10-26T19:55:35.088Z,102070.38
2023-10-26T19:58:05.832Z,102068.16
2023-10-26T20:00:34.209Z,102062.31
2023-10-26T20:03:06.163Z,102065.75
2023-10-26T20:05:34.574Z,102049.81
2023-10-26T20:08:06.106Z,102049.34
2023-10-26T20:11:08.534Z,102046.16
2023-10-26T20:13:36.561Z,102044.22
2023-10-26T20:16:12.879Z,102040.38
2023-10-26T20:19:06.424Z,102030.25
2023-10-26T20:21:36.551Z,102024.63
2023-10-26T20:24:09.129Z,102022.63
2023-10-26T20:26:39.739Z,102016.97
2023-10-26T20:29:37.092Z,102018.22
2023-10-26T20:32:09.481Z,102020.06
2023-10-26T20:34:38.800Z,102014.41
2023-10-26T20:37:12.608Z,102004.53
2023-10-26T20:39:45.065Z,102016.53
2023-10-26T20:42:13.711Z,102012.78
2023-10-26T20:44:42.234Z,102007.38
2023-10-26T20:47:10.653Z,101998.88
2023-10-26T20:49:39.483Z,101991.75
2023-10-26T20:52:08.652Z,101987.22
2023-10-26T20:54:37.662Z,101989.75
2023-10-26T20:57:06.672Z,101991.72
2023-10-26T20:59:39.387Z,101973.75
2023-10-26T21:02:08.547Z,101973.13
2023-10-26T21:04:37.500Z,101966.91
2023-10-26T21:10:07.720Z,101955.06
2023-10-26T21:12:36.909Z,101950.50
2023-10-26T21:15:18.386Z,101943.88
2023-10-26T21:20:43.028Z,101935.94
2023-10-26T21:23:46.081Z,101940.06
2023-10-26T21:26:39.205Z,101929.00
2023-10-26T21:33:37.422Z,101931.47
2023-10-26T21:37:16.788Z,101936.31
2023-10-26T21:39:38.462Z,101923.00
2023-10-26T21:42:17.808Z,101920.41
2023-10-26T21:48:35.523Z,101910.13
2023-10-26T21:53:41.169Z,101906.13
2023-10-26T21:56:10.237Z,101901.53
2023-10-26T21:58:38.982Z,101903.09
2023-10-26T22:01:09.093Z,101902.38
2023-10-26T22:04:22.560Z,101908.69
2023-10-26T22:09:07.674Z,101903.06
2023-10-26T22:14:38.543Z,101897.31
2023-10-26T22:17:34.989Z,101893.00
2023-10-26T22:20:10.721Z,101893.25
2023-10-26T22:22:42.431Z,101897.25
2023-10-26T22:25:38.307Z,101894.78
2023-10-26T22:28:13.374Z,101895.75
2023-10-26T22:30:41.831Z,101886.00
2023-10-26T22:33:12.862Z,101886.97
2023-10-26T22:35:41.314Z,101889.53
2023-10-26T22:38:11.986Z,101881.13
2023-10-26T22:40:40.585Z,101882.75
2023-10-26T22:43:34.498Z,101878.84
2023-10-26T22:49:09.733Z,101887.66
2023-10-26T22:51:41.898Z,101881.44
2023-10-26T22:54:17.412Z,101890.56
2023-10-26T22:56:46.124Z,101892.63
2023-10-26T22:59:21.761Z,101885.53
2023-10-26T23:02:06.227Z,101887.47
2023-10-26T23:04:44.842Z,101887.47
2023-10-26T23:07:21.753Z,101894.78
2023-10-26T23:10:21.763Z,101890.28
2023-10-26T23:16:04.081Z,101890.63
2023-10-26T23:18:32.296Z,101878.91
2023-10-26T23:21:11.761Z,101885.91
2023-10-26T23:23:45.741Z,101888.34
2023-10-26T23:26:17.782Z,101881.91
2023-10-26T23:28:49.013Z,101892.28
2023-10-26T23:31:33.040Z,101884.97
2023-10-26T23:34:05.394Z,101876.66
2023-10-26T23:36:43.095Z,101878.50
2023-10-26T23:39:35.089Z,101877.78
2023-10-26T23:42:06.816Z,101886.78
2023-10-26T23:44:37.886Z,101885.19
2023-10-26T23:47:07.573Z,101882.50
2023-10-26T23:49:36.286Z,101886.16
2023-10-26T23:52:04.784Z,101872.84
2023-10-26T23:54:34.150Z,101867.72
2023-10-26T23:57:02.947Z,101876.72
2023-10-26T23:59:32.352Z,101868.78
